sensor_id;sensor_type;location;lat;lon;timestamp;temperature;humidity
47368;DHT22;34646;47.964;7.982;2022-09-09T00:04:40;22.90;59.70
47368;DHT22;34646;47.964;7.982;2022-09-09T00:10:41;22.80;59.70
47368;DHT22;34646;47.964;7.982;2022-09-09T00:16:52;22.90;59.70
47368;DHT22;34646;47.964;7.982;2022-09-09T00:23:02;22.80;59.60
47368;DHT22;34646;47.964;7.982;2022-09-09T00:29:20;22.80;59.70
47368;DHT22;34646;47.964;7.982;2022-09-09T00:35:36;22.80;59.80
47368;DHT22;34646;47.964;7.982;2022-09-09T00:42:20;22.80;59.90
47368;DHT22;34646;47.964;7.982;2022-09-09T00:48:33;22.80;60.00
47368;DHT22;34646;47.964;7.982;2022-09-09T00:54:45;22.80;60.00
47368;DHT22;34646;47.964;7.982;2022-09-09T01:00:57;22.80;60.30
47368;DHT22;34646;47.964;7.982;2022-09-09T01:07:16;22.70;60.20
47368;DHT22;34646;47.964;7.982;2022-09-09T01:13:27;22.80;60.30
47368;DHT22;34646;47.964;7.982;2022-09-09T01:26:19;22.80;60.30
47368;DHT22;34646;47.964;7.982;2022-09-09T01:38:41;22.70;60.40
47368;DHT22;34646;47.964;7.982;2022-09-09T01:44:42;22.70;60.60
47368;DHT22;34646;47.964;7.982;2022-09-09T01:50:43;22.70;60.60
47368;DHT22;34646;47.964;7.982;2022-09-09T01:56:55;22.70;60.60
47368;DHT22;34646;47.964;7.982;2022-09-09T02:03:11;22.70;60.70
47368;DHT22;34646;47.964;7.982;2022-09-09T02:09:30;22.70;60.60
47368;DHT22;34646;47.964;7.982;2022-09-09T02:21:56;22.70;60.60
47368;DHT22;34646;47.964;7.982;2022-09-09T02:27:59;22.70;60.80
47368;DHT22;34646;47.964;7.982;2022-09-09T02:34:01;22.60;60.80
47368;DHT22;34646;47.964;7.982;2022-09-09T02:40:06;22.60;60.80
47368;DHT22;34646;47.964;7.982;2022-09-09T02:46:36;22.60;60.80
47368;DHT22;34646;47.964;7.982;2022-09-09T02:59:03;22.60;61.60
47368;DHT22;34646;47.964;7.982;2022-09-09T03:05:06;22.60;60.90
47368;DHT22;34646;47.964;7.982;2022-09-09T03:11:07;22.60;60.90
47368;DHT22;34646;47.964;7.982;2022-09-09T03:17:11;22.60;60.90
47368;DHT22;34646;47.964;7.982;2022-09-09T03:23:19;22.60;60.90
47368;DHT22;34646;47.964;7.982;2022-09-09T03:29:22;22.60;61.00
47368;DHT22;34646;47.964;7.982;2022-09-09T03:35:23;22.60;60.90
47368;DHT22;34646;47.964;7.982;2022-09-09T03:41:25;22.50;61.00
47368;DHT22;34646;47.964;7.982;2022-09-09T03:47:26;22.50;61.00
47368;DHT22;34646;47.964;7.982;2022-09-09T03:53:33;22.50;61.00
47368;DHT22;34646;47.964;7.982;2022-09-09T03:59:36;22.50;61.10
47368;DHT22;34646;47.964;7.982;2022-09-09T04:05:39;22.50;61.20
47368;DHT22;34646;47.964;7.982;2022-09-09T04:11:42;22.50;61.20
47368;DHT22;34646;47.964;7.982;2022-09-09T04:17:43;22.50;61.90
47368;DHT22;34646;47.964;7.982;2022-09-09T04:23:45;22.50;61.30
47368;DHT22;34646;47.964;7.982;2022-09-09T04:29:46;22.50;61.30
47368;DHT22;34646;47.964;7.982;2022-09-09T04:35:49;22.50;62.00
47368;DHT22;34646;47.964;7.982;2022-09-09T04:41:52;22.50;61.50
47368;DHT22;34646;47.964;7.982;2022-09-09T04:47:55;22.50;61.50
47368;DHT22;34646;47.964;7.982;2022-09-09T04:53:56;22.40;61.40
47368;DHT22;34646;47.964;7.982;2022-09-09T04:59:58;22.50;61.60
47368;DHT22;34646;47.964;7.982;2022-09-09T05:06:14;22.50;61.70
47368;DHT22;34646;47.964;7.982;2022-09-09T05:12:16;22.40;61.70
47368;DHT22;34646;47.964;7.982;2022-09-09T05:18:25;22.40;61.80
47368;DHT22;34646;47.964;7.982;2022-09-09T05:24:25;22.40;61.90
47368;DHT22;34646;47.964;7.982;2022-09-09T05:30:28;22.40;61.90
47368;DHT22;34646;47.964;7.982;2022-09-09T05:36:30;22.40;61.60
47368;DHT22;34646;47.964;7.982;2022-09-09T05:42:31;22.40;61.80
47368;DHT22;34646;47.964;7.982;2022-09-09T05:48:35;22.40;62.00
47368;DHT22;34646;47.964;7.982;2022-09-09T05:54:36;22.40;61.90
47368;DHT22;34646;47.964;7.982;2022-09-09T06:00:38;22.40;61.90
47368;DHT22;34646;47.964;7.982;2022-09-09T06:06:39;22.40;61.90
47368;DHT22;34646;47.964;7.982;2022-09-09T06:12:52;22.40;61.90
47368;DHT22;34646;47.964;7.982;2022-09-09T06:18:55;22.30;61.90
47368;DHT22;34646;47.964;7.982;2022-09-09T06:24:58;22.30;61.90
47368;DHT22;34646;47.964;7.982;2022-09-09T06:31:04;22.30;61.90
47368;DHT22;34646;47.964;7.982;2022-09-09T06:37:05;22.40;62.00
47368;DHT22;34646;47.964;7.982;2022-09-09T06:43:12;22.30;62.00
47368;DHT22;34646;47.964;7.982;2022-09-09T06:49:21;22.30;62.00
47368;DHT22;34646;47.964;7.982;2022-09-09T06:55:22;22.30;62.00
47368;DHT22;34646;47.964;7.982;2022-09-09T07:01:25;22.30;62.10
47368;DHT22;34646;47.964;7.982;2022-09-09T07:07:26;22.30;62.00
47368;DHT22;34646;47.964;7.982;2022-09-09T07:13:27;22.30;62.10
47368;DHT22;34646;47.964;7.982;2022-09-09T07:19:29;22.30;62.20
47368;DHT22;34646;47.964;7.982;2022-09-09T07:25:30;22.30;62.10
47368;DHT22;34646;47.964;7.982;2022-09-09T07:31:33;22.30;62.10
47368;DHT22;34646;47.964;7.982;2022-09-09T07:37:36;22.30;62.10
47368;DHT22;34646;47.964;7.982;2022-09-09T07:43:43;22.30;62.20
47368;DHT22;34646;47.964;7.982;2022-09-09T07:49:44;22.30;62.20
47368;DHT22;34646;47.964;7.982;2022-09-09T07:55:48;22.30;62.30
47368;DHT22;34646;47.964;7.982;2022-09-09T08:01:50;22.30;62.30
47368;DHT22;34646;47.964;7.982;2022-09-09T08:07:55;22.20;62.30
47368;DHT22;34646;47.964;7.982;2022-09-09T08:13:56;22.20;62.30
47368;DHT22;34646;47.964;7.982;2022-09-09T08:19:57;22.20;62.30
47368;DHT22;34646;47.964;7.982;2022-09-09T08:26:13;22.20;62.30
47368;DHT22;34646;47.964;7.982;2022-09-09T08:32:15;22.20;62.40
47368;DHT22;34646;47.964;7.982;2022-09-09T08:38:18;22.20;62.50
47368;DHT22;34646;47.964;7.982;2022-09-09T08:50:39;22.20;62.60
47368;DHT22;34646;47.964;7.982;2022-09-09T08:56:49;22.20;62.60
47368;DHT22;34646;47.964;7.982;2022-09-09T09:03:53;22.20;62.70
47368;DHT22;34646;47.964;7.982;2022-09-09T09:09:57;22.20;62.60
47368;DHT22;34646;47.964;7.982;2022-09-09T09:16:23;22.20;62.60
47368;DHT22;34646;47.964;7.982;2022-09-09T09:22:48;22.20;62.50
47368;DHT22;34646;47.964;7.982;2022-09-09T09:28:55;22.20;62.80
47368;DHT22;34646;47.964;7.982;2022-09-09T09:34:58;22.20;62.90
47368;DHT22;34646;47.964;7.982;2022-09-09T09:41:02;22.20;62.60
47368;DHT22;34646;47.964;7.982;2022-09-09T09:47:11;22.20;62.60
47368;DHT22;34646;47.964;7.982;2022-09-09T09:53:25;22.20;62.50
47368;DHT22;34646;47.964;7.982;2022-09-09T09:59:35;22.20;62.50
47368;DHT22;34646;47.964;7.982;2022-09-09T10:05:45;22.20;63.00
47368;DHT22;34646;47.964;7.982;2022-09-09T10:38:13;22.20;62.80
47368;DHT22;34646;47.964;7.982;2022-09-09T10:44:21;22.20;62.20
47368;DHT22;34646;47.964;7.982;2022-09-09T10:56:43;22.10;62.50
47368;DHT22;34646;47.964;7.982;2022-09-09T11:03:23;22.20;62.70
47368;DHT22;34646;47.964;7.982;2022-09-09T11:09:21;22.20;62.80
47368;DHT22;34646;47.964;7.982;2022-09-09T11:15:35;22.20;62.90
47368;DHT22;34646;47.964;7.982;2022-09-09T11:21:44;22.20;63.50
47368;DHT22;34646;47.964;7.982;2022-09-09T11:34:34;22.20;62.90
47368;DHT22;34646;47.964;7.982;2022-09-09T11:40:39;22.20;63.00
47368;DHT22;34646;47.964;7.982;2022-09-09T11:46:41;22.20;63.00
47368;DHT22;34646;47.964;7.982;2022-09-09T11:52:44;22.10;62.90
47368;DHT22;34646;47.964;7.982;2022-09-09T11:59:06;22.20;63.00
47368;DHT22;34646;47.964;7.982;2022-09-09T12:05:20;22.20;62.90
47368;DHT22;34646;47.964;7.982;2022-09-09T12:11:29;22.10;62.90
47368;DHT22;34646;47.964;7.982;2022-09-09T12:17:32;22.10;63.00
47368;DHT22;34646;47.964;7.982;2022-09-09T12:23:42;22.20;63.00
47368;DHT22;34646;47.964;7.982;2022-09-09T12:30:02;22.20;63.20
47368;DHT22;34646;47.964;7.982;2022-09-09T12:36:05;22.20;63.00
47368;DHT22;34646;47.964;7.982;2022-09-09T12:42:20;22.20;63.00
47368;DHT22;34646;47.964;7.982;2022-09-09T12:48:27;22.20;63.00
47368;DHT22;34646;47.964;7.982;2022-09-09T12:54:31;22.20;63.10
47368;DHT22;34646;47.964;7.982;2022-09-09T13:00:33;22.20;63.20
47368;DHT22;34646;47.964;7.982;2022-09-09T13:06:34;22.20;63.30
47368;DHT22;34646;47.964;7.982;2022-09-09T13:12:35;22.20;63.30
47368;DHT22;34646;47.964;7.982;2022-09-09T13:18:39;22.10;63.20
47368;DHT22;34646;47.964;7.982;2022-09-09T13:24:40;22.20;63.20
47368;DHT22;34646;47.964;7.982;2022-09-09T13:30:42;22.10;63.00
47368;DHT22;34646;47.964;7.982;2022-09-09T13:36:48;22.10;63.00
47368;DHT22;34646;47.964;7.982;2022-09-09T13:42:55;22.10;63.00
47368;DHT22;34646;47.964;7.982;2022-09-09T13:48:57;22.10;63.10
47368;DHT22;34646;47.964;7.982;2022-09-09T13:54:58;22.20;63.10
47368;DHT22;34646;47.964;7.982;2022-09-09T14:00:59;22.20;63.00
47368;DHT22;34646;47.964;7.982;2022-09-09T14:07:01;22.30;63.10
47368;DHT22;34646;47.964;7.982;2022-09-09T14:13:03;22.30;63.30
47368;DHT22;34646;47.964;7.982;2022-09-09T14:19:04;22.40;63.50
47368;DHT22;34646;47.964;7.982;2022-09-09T14:25:05;22.40;63.50
47368;DHT22;34646;47.964;7.982;2022-09-09T14:31:07;22.50;63.60
47368;DHT22;34646;47.964;7.982;2022-09-09T14:37:07;22.50;63.50
47368;DHT22;34646;47.964;7.982;2022-09-09T14:43:10;22.60;63.30
47368;DHT22;34646;47.964;7.982;2022-09-09T14:49:11;22.70;63.20
47368;DHT22;34646;47.964;7.982;2022-09-09T14:55:13;22.70;63.60
47368;DHT22;34646;47.964;7.982;2022-09-09T15:01:15;22.80;62.90
47368;DHT22;34646;47.964;7.982;2022-09-09T15:07:16;22.90;62.70
47368;DHT22;34646;47.964;7.982;2022-09-09T15:13:19;22.90;62.50
47368;DHT22;34646;47.964;7.982;2022-09-09T15:19:20;23.00;62.50
47368;DHT22;34646;47.964;7.982;2022-09-09T15:25:21;23.00;62.30
47368;DHT22;34646;47.964;7.982;2022-09-09T15:31:24;23.10;62.30
47368;DHT22;34646;47.964;7.982;2022-09-09T15:37:25;23.00;62.20
47368;DHT22;34646;47.964;7.982;2022-09-09T15:43:26;23.00;62.30
47368;DHT22;34646;47.964;7.982;2022-09-09T15:49:26;22.90;62.20
47368;DHT22;34646;47.964;7.982;2022-09-09T15:55:27;22.90;62.30
47368;DHT22;34646;47.964;7.982;2022-09-09T16:01:29;22.80;62.20
47368;DHT22;34646;47.964;7.982;2022-09-09T16:07:30;22.80;62.20
47368;DHT22;34646;47.964;7.982;2022-09-09T16:13:33;22.80;62.30
47368;DHT22;34646;47.964;7.982;2022-09-09T16:19:34;22.70;62.30
47368;DHT22;34646;47.964;7.982;2022-09-09T16:25:35;22.70;62.40
47368;DHT22;34646;47.964;7.982;2022-09-09T16:31:36;22.70;62.40
47368;DHT22;34646;47.964;7.982;2022-09-09T16:37:37;22.60;62.30
47368;DHT22;34646;47.964;7.982;2022-09-09T16:43:38;22.60;62.40
47368;DHT22;34646;47.964;7.982;2022-09-09T16:49:40;22.60;62.40
47368;DHT22;34646;47.964;7.982;2022-09-09T16:55:41;22.60;62.40
47368;DHT22;34646;47.964;7.982;2022-09-09T17:01:44;22.60;62.40
47368;DHT22;34646;47.964;7.982;2022-09-09T17:07:45;22.60;62.50
47368;DHT22;34646;47.964;7.982;2022-09-09T17:13:46;22.50;62.50
47368;DHT22;34646;47.964;7.982;2022-09-09T17:19:48;22.50;62.50
47368;DHT22;34646;47.964;7.982;2022-09-09T17:25:57;22.50;62.60
47368;DHT22;34646;47.964;7.982;2022-09-09T17:31:58;22.50;62.70
47368;DHT22;34646;47.964;7.982;2022-09-09T17:37:59;22.50;62.70
47368;DHT22;34646;47.964;7.982;2022-09-09T17:44:00;22.50;62.70
47368;DHT22;34646;47.964;7.982;2022-09-09T17:50:01;22.50;62.70
47368;DHT22;34646;47.964;7.982;2022-09-09T17:56:06;22.40;62.70
47368;DHT22;34646;47.964;7.982;2022-09-09T18:02:09;22.40;62.70
47368;DHT22;34646;47.964;7.982;2022-09-09T18:08:11;22.40;63.40
47368;DHT22;34646;47.964;7.982;2022-09-09T18:14:18;22.40;62.70
47368;DHT22;34646;47.964;7.982;2022-09-09T18:20:19;22.40;62.70
47368;DHT22;34646;47.964;7.982;2022-09-09T18:26:25;22.40;62.80
47368;DHT22;34646;47.964;7.982;2022-09-09T18:32:27;22.40;62.80
47368;DHT22;34646;47.964;7.982;2022-09-09T18:38:31;22.40;62.80
47368;DHT22;34646;47.964;7.982;2022-09-09T18:44:34;22.30;62.80
47368;DHT22;34646;47.964;7.982;2022-09-09T18:50:35;22.40;62.80
47368;DHT22;34646;47.964;7.982;2022-09-09T18:56:36;22.30;62.80
47368;DHT22;34646;47.964;7.982;2022-09-09T19:02:37;22.30;63.00
47368;DHT22;34646;47.964;7.982;2022-09-09T19:08:40;22.30;63.50
47368;DHT22;34646;47.964;7.982;2022-09-09T19:14:41;22.30;63.00
47368;DHT22;34646;47.964;7.982;2022-09-09T19:20:42;22.30;63.10
47368;DHT22;34646;47.964;7.982;2022-09-09T19:26:46;22.30;63.00
47368;DHT22;34646;47.964;7.982;2022-09-09T19:32:47;22.30;63.30
47368;DHT22;34646;47.964;7.982;2022-09-09T19:38:48;22.30;63.80
47368;DHT22;34646;47.964;7.982;2022-09-09T19:44:49;22.40;64.40
47368;DHT22;34646;47.964;7.982;2022-09-09T19:50:50;22.30;64.90
47368;DHT22;34646;47.964;7.982;2022-09-09T19:56:50;22.30;65.30
47368;DHT22;34646;47.964;7.982;2022-09-09T20:02:51;22.30;65.10
47368;DHT22;34646;47.964;7.982;2022-09-09T20:08:54;22.30;65.60
47368;DHT22;34646;47.964;7.982;2022-09-09T20:14:55;22.30;64.90
47368;DHT22;34646;47.964;7.982;2022-09-09T20:20:57;22.30;64.60
47368;DHT22;34646;47.964;7.982;2022-09-09T20:26:59;22.30;65.00
47368;DHT22;34646;47.964;7.982;2022-09-09T20:33:00;22.30;65.40
47368;DHT22;34646;47.964;7.982;2022-09-09T20:39:14;22.30;65.00
47368;DHT22;34646;47.964;7.982;2022-09-09T20:45:15;22.30;64.70
47368;DHT22;34646;47.964;7.982;2022-09-09T20:51:17;22.30;64.50
47368;DHT22;34646;47.964;7.982;2022-09-09T20:57:19;22.30;64.80
47368;DHT22;34646;47.964;7.982;2022-09-09T21:03:21;22.30;64.40
47368;DHT22;34646;47.964;7.982;2022-09-09T21:09:22;22.30;64.40
47368;DHT22;34646;47.964;7.982;2022-09-09T21:15:23;22.30;64.70
47368;DHT22;34646;47.964;7.982;2022-09-09T21:21:25;22.30;64.40
47368;DHT22;34646;47.964;7.982;2022-09-09T21:27:26;22.30;64.10
47368;DHT22;34646;47.964;7.982;2022-09-09T21:33:27;22.30;64.30
47368;DHT22;34646;47.964;7.982;2022-09-09T21:39:28;22.30;63.90
47368;DHT22;34646;47.964;7.982;2022-09-09T21:45:29;22.30;64.30
47368;DHT22;34646;47.964;7.982;2022-09-09T21:51:30;22.30;64.00
47368;DHT22;34646;47.964;7.982;2022-09-09T21:57:31;22.30;63.90
47368;DHT22;34646;47.964;7.982;2022-09-09T22:03:31;22.30;63.70
47368;DHT22;34646;47.964;7.982;2022-09-09T22:09:33;22.30;64.30
47368;DHT22;34646;47.964;7.982;2022-09-09T22:15:34;22.20;63.60
47368;DHT22;34646;47.964;7.982;2022-09-09T22:21:35;22.30;63.70
47368;DHT22;34646;47.964;7.982;2022-09-09T22:27:36;22.20;63.60
47368;DHT22;34646;47.964;7.982;2022-09-09T22:33:37;22.20;63.70
47368;DHT22;34646;47.964;7.982;2022-09-09T22:39:37;22.20;63.70
47368;DHT22;34646;47.964;7.982;2022-09-09T22:45:38;22.20;63.70
47368;DHT22;34646;47.964;7.982;2022-09-09T22:51:39;22.20;63.70
47368;DHT22;34646;47.964;7.982;2022-09-09T22:57:39;22.20;63.70
47368;DHT22;34646;47.964;7.982;2022-09-09T23:03:42;22.20;63.70
47368;DHT22;34646;47.964;7.982;2022-09-09T23:09:45;22.20;63.70
47368;DHT22;34646;47.964;7.982;2022-09-09T23:15:47;22.10;63.60
47368;DHT22;34646;47.964;7.982;2022-09-09T23:21:47;22.10;63.60
47368;DHT22;34646;47.964;7.982;2022-09-09T23:27:49;22.10;64.20
47368;DHT22;34646;47.964;7.982;2022-09-09T23:33:51;22.10;63.70
47368;DHT22;34646;47.964;7.982;2022-09-09T23:39:55;22.10;63.70
47368;DHT22;34646;47.964;7.982;2022-09-09T23:45:56;22.10;63.60
47368;DHT22;34646;47.964;7.982;2022-09-09T23:51:56;22.10;63.80
47368;DHT22;34646;47.964;7.982;2022-09-09T23:57:57;22.10;63.70
